CYMA

Details ICAO CYMA (YMA)
Name MAYO
Region Canada
Timezone America/Whitehorse (UTC-8.0)
Plans Departing 6
Arriving 4
Stats Elevation 1,653 ft / 504 m (AMSL)
Location 63.616388° -135.868334°
Runways 1
Magnetic Variation 20.287° E
Sunrise 2017-12-11 18:39:27 UTC / 2017-12-11 10:39:27 Local
Sunset 2017-12-11 23:17:16 UTC / 2017-12-11 15:17:16 Local
Advertisement - Login to hide

Runways

ID Width Length Bearing (true) Bearing (mag) Surface Threshold Offset Overrun Length
06 100 ft / 30 m 4,839 ft / 1,475 m 89.71° 69.42° Gravel 0 ft / 0 m 0 ft / 0 m
24 100 ft / 30 m 4,839 ft / 1,475 m 269.74° 249.45° Gravel 0 ft / 0 m 0 ft / 0 m

Map

Weather


0- 5 10 15 20 25 30 35+ Temperature / ° C

Clouds and Precipitation
Forecast for 2017-12-11 18:00 UTC. Updated 30 minutes ago

Ground ~20,000 ft ~40,000 ft Winds

METAR

CYMA 111700Z 11006KT 20SM OVC058 04/M01 A2955 RMK SC8 SLP035

TAF

TAF AMD TAF AMD CYMA 111647Z 1116/1124 10010G20KT P6SM SCT060 SCT230 TEMPO 1116/1118 BKN060 BECMG 1122/1124 VRB03KT RMK NXT FCST BY 111800Z
Warning: Do not use this data for real-world aviation or navigation. No guarantee of current accuracy is given.